sensor_id;sensor_type;location;lat;lon;timestamp;pressure;altitude;pressure_sealevel;temperature;humidity
9746;BME280;4912;50.836;12.958;2023-05-24T00:00:59;98089.41;;;12.26;79.24
9746;BME280;4912;50.836;12.958;2023-05-24T00:03:29;98090.84;;;12.21;78.84
9746;BME280;4912;50.836;12.958;2023-05-24T00:06:01;98094.38;;;12.22;78.77
9746;BME280;4912;50.836;12.958;2023-05-24T00:08:35;98097.34;;;12.18;79.11
9746;BME280;4912;50.836;12.958;2023-05-24T00:11:06;98094.72;;;12.15;78.70
9746;BME280;4912;50.836;12.958;2023-05-24T00:13:37;98101.50;;;12.14;78.58
9746;BME280;4912;50.836;12.958;2023-05-24T00:16:08;98096.59;;;12.09;78.46
9746;BME280;4912;50.836;12.958;2023-05-24T00:18:38;98089.53;;;12.08;78.69
9746;BME280;4912;50.836;12.958;2023-05-24T00:21:13;98095.72;;;12.03;78.83
9746;BME280;4912;50.836;12.958;2023-05-24T00:23:46;98100.38;;;11.97;78.52
9746;BME280;4912;50.836;12.958;2023-05-24T00:26:17;98097.59;;;11.97;78.72
9746;BME280;4912;50.836;12.958;2023-05-24T00:28:54;98092.81;;;11.97;78.73
9746;BME280;4912;50.836;12.958;2023-05-24T00:31:25;98096.81;;;11.96;78.85
9746;BME280;4912;50.836;12.958;2023-05-24T00:33:55;98092.09;;;11.87;78.92
9746;BME280;4912;50.836;12.958;2023-05-24T00:36:26;98107.19;;;11.86;78.57
9746;BME280;4912;50.836;12.958;2023-05-24T00:39:00;98098.44;;;11.79;77.21
9746;BME280;4912;50.836;12.958;2023-05-24T00:41:30;98105.97;;;11.87;77.79
9746;BME280;4912;50.836;12.958;2023-05-24T00:44:01;98103.50;;;11.89;78.12
9746;BME280;4912;50.836;12.958;2023-05-24T00:46:32;98108.09;;;11.93;77.74
9746;BME280;4912;50.836;12.958;2023-05-24T00:49:04;98109.78;;;11.90;77.70
9746;BME280;4912;50.836;12.958;2023-05-24T00:51:35;98104.44;;;11.86;77.46
9746;BME280;4912;50.836;12.958;2023-05-24T00:54:09;98104.75;;;11.79;77.05
9746;BME280;4912;50.836;12.958;2023-05-24T00:56:40;98110.31;;;11.79;77.44
9746;BME280;4912;50.836;12.958;2023-05-24T00:59:11;98108.44;;;11.85;77.41
9746;BME280;4912;50.836;12.958;2023-05-24T01:01:42;98113.34;;;11.90;77.23
9746;BME280;4912;50.836;12.958;2023-05-24T01:04:13;98118.59;;;11.88;77.29
9746;BME280;4912;50.836;12.958;2023-05-24T01:06:54;98116.28;;;11.87;77.31
9746;BME280;4912;50.836;12.958;2023-05-24T01:09:49;98103.66;;;11.86;77.62
9746;BME280;4912;50.836;12.958;2023-05-24T01:12:39;98107.84;;;11.81;78.05
9746;BME280;4912;50.836;12.958;2023-05-24T01:15:24;98106.75;;;11.79;78.66
9746;BME280;4912;50.836;12.958;2023-05-24T01:18:03;98116.94;;;11.82;79.30
9746;BME280;4912;50.836;12.958;2023-05-24T01:20:37;98108.63;;;11.82;79.12
9746;BME280;4912;50.836;12.958;2023-05-24T01:23:31;98113.22;;;11.85;79.09
9746;BME280;4912;50.836;12.958;2023-05-24T01:26:29;98116.63;;;11.80;77.68
9746;BME280;4912;50.836;12.958;2023-05-24T01:29:06;98118.63;;;11.79;77.84
9746;BME280;4912;50.836;12.958;2023-05-24T01:31:37;98114.31;;;11.78;78.11
9746;BME280;4912;50.836;12.958;2023-05-24T01:34:10;98123.25;;;11.82;78.37
9746;BME280;4912;50.836;12.958;2023-05-24T01:36:41;98122.94;;;11.80;78.70
9746;BME280;4912;50.836;12.958;2023-05-24T01:39:12;98116.81;;;11.76;78.99
9746;BME280;4912;50.836;12.958;2023-05-24T01:41:50;98122.16;;;11.80;79.09
9746;BME280;4912;50.836;12.958;2023-05-24T01:44:35;98126.19;;;11.70;78.88
9746;BME280;4912;50.836;12.958;2023-05-24T01:47:18;98127.78;;;11.53;79.32
9746;BME280;4912;50.836;12.958;2023-05-24T01:49:57;98122.09;;;11.47;79.48
9746;BME280;4912;50.836;12.958;2023-05-24T01:52:32;98134.44;;;11.37;79.03
9746;BME280;4912;50.836;12.958;2023-05-24T01:55:06;98129.84;;;11.34;79.20
9746;BME280;4912;50.836;12.958;2023-05-24T01:57:39;98127.50;;;11.32;78.76
9746;BME280;4912;50.836;12.958;2023-05-24T02:00:14;98132.00;;;11.21;78.53
9746;BME280;4912;50.836;12.958;2023-05-24T02:02:47;98128.94;;;11.19;78.77
9746;BME280;4912;50.836;12.958;2023-05-24T02:05:18;98138.16;;;11.16;78.31
9746;BME280;4912;50.836;12.958;2023-05-24T02:07:50;98130.00;;;11.21;77.80
9746;BME280;4912;50.836;12.958;2023-05-24T02:10:22;98129.69;;;11.28;77.99
9746;BME280;4912;50.836;12.958;2023-05-24T02:12:53;98130.16;;;11.27;77.77
9746;BME280;4912;50.836;12.958;2023-05-24T02:15:28;98122.78;;;11.24;78.02
9746;BME280;4912;50.836;12.958;2023-05-24T02:17:59;98129.69;;;11.19;77.79
9746;BME280;4912;50.836;12.958;2023-05-24T02:20:30;98132.31;;;11.14;78.46
9746;BME280;4912;50.836;12.958;2023-05-24T02:23:03;98129.09;;;11.15;78.81
9746;BME280;4912;50.836;12.958;2023-05-24T02:25:36;98129.88;;;11.16;78.64
9746;BME280;4912;50.836;12.958;2023-05-24T02:28:06;98127.09;;;11.16;78.81
9746;BME280;4912;50.836;12.958;2023-05-24T02:30:40;98120.16;;;11.20;78.81
9746;BME280;4912;50.836;12.958;2023-05-24T02:33:11;98119.38;;;11.20;79.03
9746;BME280;4912;50.836;12.958;2023-05-24T02:35:42;98127.09;;;11.25;77.98
9746;BME280;4912;50.836;12.958;2023-05-24T02:38:12;98125.09;;;11.16;77.96
9746;BME280;4912;50.836;12.958;2023-05-24T02:40:43;98126.19;;;11.09;77.76
9746;BME280;4912;50.836;12.958;2023-05-24T02:43:14;98125.13;;;11.07;77.81
9746;BME280;4912;50.836;12.958;2023-05-24T02:45:47;98123.28;;;10.95;77.83
9746;BME280;4912;50.836;12.958;2023-05-24T02:48:18;98115.13;;;10.91;77.81
9746;BME280;4912;50.836;12.958;2023-05-24T02:50:48;98117.88;;;10.91;77.50
9746;BME280;4912;50.836;12.958;2023-05-24T02:53:19;98108.22;;;10.87;77.50
9746;BME280;4912;50.836;12.958;2023-05-24T02:55:50;98119.59;;;10.89;77.79
9746;BME280;4912;50.836;12.958;2023-05-24T02:58:21;98106.03;;;10.73;77.59
9746;BME280;4912;50.836;12.958;2023-05-24T03:00:54;98104.97;;;10.70;78.41
9746;BME280;4912;50.836;12.958;2023-05-24T03:03:25;98106.38;;;10.75;78.06
9746;BME280;4912;50.836;12.958;2023-05-24T03:05:57;98108.38;;;10.65;77.86
9746;BME280;4912;50.836;12.958;2023-05-24T03:08:28;98110.06;;;10.72;77.94
9746;BME280;4912;50.836;12.958;2023-05-24T03:10:58;98104.69;;;10.59;77.67
9746;BME280;4912;50.836;12.958;2023-05-24T03:13:29;98106.66;;;10.49;78.30
9746;BME280;4912;50.836;12.958;2023-05-24T03:16:02;98107.59;;;10.46;77.83
9746;BME280;4912;50.836;12.958;2023-05-24T03:18:33;98108.66;;;10.40;78.22
9746;BME280;4912;50.836;12.958;2023-05-24T03:21:04;98113.69;;;10.32;77.86
9746;BME280;4912;50.836;12.958;2023-05-24T03:23:35;98113.09;;;10.28;78.04
9746;BME280;4912;50.836;12.958;2023-05-24T03:26:06;98114.63;;;10.29;77.56
9746;BME280;4912;50.836;12.958;2023-05-24T03:28:36;98120.94;;;10.30;77.62
9746;BME280;4912;50.836;12.958;2023-05-24T03:31:10;98124.59;;;10.26;77.73
9746;BME280;4912;50.836;12.958;2023-05-24T03:33:41;98121.06;;;10.26;77.64
9746;BME280;4912;50.836;12.958;2023-05-24T03:36:11;98120.63;;;10.27;77.23
9746;BME280;4912;50.836;12.958;2023-05-24T03:38:42;98123.53;;;10.33;77.63
9746;BME280;4912;50.836;12.958;2023-05-24T03:41:13;98126.00;;;10.49;77.84
9746;BME280;4912;50.836;12.958;2023-05-24T03:43:43;98127.72;;;10.56;76.57
9746;BME280;4912;50.836;12.958;2023-05-24T03:46:18;98129.25;;;10.57;76.70
9746;BME280;4912;50.836;12.958;2023-05-24T03:48:49;98126.03;;;10.58;76.72
9746;BME280;4912;50.836;12.958;2023-05-24T03:51:20;98128.03;;;10.67;76.80
9746;BME280;4912;50.836;12.958;2023-05-24T03:53:55;98135.44;;;10.70;76.35
9746;BME280;4912;50.836;12.958;2023-05-24T03:56:26;98128.19;;;10.63;75.91
9746;BME280;4912;50.836;12.958;2023-05-24T03:58:57;98139.88;;;10.67;76.38
9746;BME280;4912;50.836;12.958;2023-05-24T04:01:34;98133.41;;;10.61;75.23
9746;BME280;4912;50.836;12.958;2023-05-24T04:04:05;98138.16;;;10.61;75.05
9746;BME280;4912;50.836;12.958;2023-05-24T04:06:36;98134.50;;;10.64;75.51
9746;BME280;4912;50.836;12.958;2023-05-24T04:09:08;98145.56;;;10.64;74.45
9746;BME280;4912;50.836;12.958;2023-05-24T04:11:38;98141.56;;;10.56;75.67
9746;BME280;4912;50.836;12.958;2023-05-24T04:14:10;98147.25;;;10.61;75.28
9746;BME280;4912;50.836;12.958;2023-05-24T04:16:44;98144.78;;;10.63;74.69
9746;BME280;4912;50.836;12.958;2023-05-24T04:19:14;98146.78;;;10.54;75.64
9746;BME280;4912;50.836;12.958;2023-05-24T04:21:45;98151.56;;;10.53;75.59
9746;BME280;4912;50.836;12.958;2023-05-24T04:24:16;98148.94;;;10.59;75.07
9746;BME280;4912;50.836;12.958;2023-05-24T04:26:46;98154.78;;;10.61;75.33
9746;BME280;4912;50.836;12.958;2023-05-24T04:29:17;98151.38;;;10.39;74.51
9746;BME280;4912;50.836;12.958;2023-05-24T04:31:51;98157.81;;;10.36;75.25
9746;BME280;4912;50.836;12.958;2023-05-24T04:34:24;98151.97;;;10.43;74.81
9746;BME280;4912;50.836;12.958;2023-05-24T04:36:55;98161.97;;;10.40;74.20
9746;BME280;4912;50.836;12.958;2023-05-24T04:39:26;98162.31;;;10.42;74.40
9746;BME280;4912;50.836;12.958;2023-05-24T04:41:56;98158.16;;;10.47;74.69
9746;BME280;4912;50.836;12.958;2023-05-24T04:44:27;98164.75;;;10.49;74.63
9746;BME280;4912;50.836;12.958;2023-05-24T04:47:00;98164.91;;;10.55;74.17
9746;BME280;4912;50.836;12.958;2023-05-24T04:49:31;98166.00;;;10.48;73.43
9746;BME280;4912;50.836;12.958;2023-05-24T04:52:02;98168.00;;;10.48;74.42
9746;BME280;4912;50.836;12.958;2023-05-24T04:54:33;98173.81;;;10.50;74.29
9746;BME280;4912;50.836;12.958;2023-05-24T04:57:04;98175.31;;;10.33;73.46
9746;BME280;4912;50.836;12.958;2023-05-24T04:59:34;98184.56;;;10.39;74.27
9746;BME280;4912;50.836;12.958;2023-05-24T05:02:07;98188.25;;;10.36;73.75
9746;BME280;4912;50.836;12.958;2023-05-24T05:04:38;98192.19;;;10.25;74.42
9746;BME280;4912;50.836;12.958;2023-05-24T05:07:08;98195.28;;;10.27;74.72
9746;BME280;4912;50.836;12.958;2023-05-24T05:09:39;98197.44;;;10.23;75.16
9746;BME280;4912;50.836;12.958;2023-05-24T05:12:10;98201.59;;;10.28;74.33
9746;BME280;4912;50.836;12.958;2023-05-24T05:14:41;98198.22;;;10.33;73.87
9746;BME280;4912;50.836;12.958;2023-05-24T05:17:14;98199.94;;;10.49;73.95
9746;BME280;4912;50.836;12.958;2023-05-24T05:19:45;98204.13;;;10.53;73.58
9746;BME280;4912;50.836;12.958;2023-05-24T05:22:16;98207.22;;;10.64;73.11
9746;BME280;4912;50.836;12.958;2023-05-24T05:24:46;98206.28;;;10.67;73.16
9746;BME280;4912;50.836;12.958;2023-05-24T05:27:17;98194.31;;;10.71;73.06
9746;BME280;4912;50.836;12.958;2023-05-24T05:29:47;98208.59;;;10.78;71.66
9746;BME280;4912;50.836;12.958;2023-05-24T05:32:20;98206.03;;;10.84;71.42
9746;BME280;4912;50.836;12.958;2023-05-24T05:34:51;98211.72;;;10.98;71.29
9746;BME280;4912;50.836;12.958;2023-05-24T05:37:22;98209.56;;;11.02;70.30
9746;BME280;4912;50.836;12.958;2023-05-24T05:39:52;98209.13;;;11.13;69.98
9746;BME280;4912;50.836;12.958;2023-05-24T05:42:23;98214.78;;;11.09;68.21
9746;BME280;4912;50.836;12.958;2023-05-24T05:44:53;98212.16;;;10.97;68.12
9746;BME280;4912;50.836;12.958;2023-05-24T05:47:26;98209.88;;;10.95;68.59
9746;BME280;4912;50.836;12.958;2023-05-24T05:49:57;98216.34;;;11.01;68.30
9746;BME280;4912;50.836;12.958;2023-05-24T05:52:27;98219.41;;;11.03;67.70
9746;BME280;4912;50.836;12.958;2023-05-24T05:54:58;98218.66;;;11.12;67.65
9746;BME280;4912;50.836;12.958;2023-05-24T05:57:29;98219.09;;;11.20;67.73
9746;BME280;4912;50.836;12.958;2023-05-24T05:59:59;98217.09;;;11.11;66.97
9746;BME280;4912;50.836;12.958;2023-05-24T06:02:41;98216.34;;;11.01;66.83
9746;BME280;4912;50.836;12.958;2023-05-24T06:05:12;98229.25;;;10.95;66.04
9746;BME280;4912;50.836;12.958;2023-05-24T06:07:42;98221.88;;;11.01;67.30
9746;BME280;4912;50.836;12.958;2023-05-24T06:10:13;98232.78;;;11.14;67.06
9746;BME280;4912;50.836;12.958;2023-05-24T06:12:44;98236.47;;;11.20;66.64
9746;BME280;4912;50.836;12.958;2023-05-24T06:15:14;98238.31;;;11.14;66.13
9746;BME280;4912;50.836;12.958;2023-05-24T06:17:51;98234.47;;;11.21;66.24
9746;BME280;4912;50.836;12.958;2023-05-24T06:20:21;98239.09;;;11.33;66.24
9746;BME280;4912;50.836;12.958;2023-05-24T06:22:52;98243.88;;;11.41;65.40
9746;BME280;4912;50.836;12.958;2023-05-24T06:25:23;98238.50;;;11.29;64.47
9746;BME280;4912;50.836;12.958;2023-05-24T06:27:56;98234.03;;;11.22;64.60
9746;BME280;4912;50.836;12.958;2023-05-24T06:30:27;98235.41;;;11.27;64.17
9746;BME280;4912;50.836;12.958;2023-05-24T06:33:02;98244.34;;;11.40;64.27
9746;BME280;4912;50.836;12.958;2023-05-24T06:35:33;98240.03;;;11.48;64.33
9746;BME280;4912;50.836;12.958;2023-05-24T06:38:03;98230.78;;;11.60;64.07
9746;BME280;4912;50.836;12.958;2023-05-24T06:40:34;98234.47;;;11.57;63.43
9746;BME280;4912;50.836;12.958;2023-05-24T06:43:05;98241.69;;;11.64;64.05
9746;BME280;4912;50.836;12.958;2023-05-24T06:45:39;98239.38;;;11.80;64.11
9746;BME280;4912;50.836;12.958;2023-05-24T06:48:12;98244.47;;;11.64;63.06
9746;BME280;4912;50.836;12.958;2023-05-24T06:50:43;98236.47;;;11.57;64.65
9746;BME280;4912;50.836;12.958;2023-05-24T06:53:14;98243.41;;;11.52;62.62
9746;BME280;4912;50.836;12.958;2023-05-24T06:55:45;98236.00;;;11.58;62.66
9746;BME280;4912;50.836;12.958;2023-05-24T06:58:15;98244.16;;;11.62;62.38
9746;BME280;4912;50.836;12.958;2023-05-24T07:00:46;98235.69;;;11.83;61.99
9746;BME280;4912;50.836;12.958;2023-05-24T07:03:19;98238.84;;;12.09;61.19
9746;BME280;4912;50.836;12.958;2023-05-24T07:05:50;98233.00;;;12.40;60.67
9746;BME280;4912;50.836;12.958;2023-05-24T07:08:20;98248.63;;;12.61;58.74
9746;BME280;4912;50.836;12.958;2023-05-24T07:10:52;98241.59;;;12.51;56.86
9746;BME280;4912;50.836;12.958;2023-05-24T07:13:23;98246.25;;;12.78;56.89
9746;BME280;4912;50.836;12.958;2023-05-24T07:15:53;98243.63;;;12.98;54.97
9746;BME280;4912;50.836;12.958;2023-05-24T07:18:27;98241.38;;;13.11;53.85
9746;BME280;4912;50.836;12.958;2023-05-24T07:20:57;98243.09;;;13.33;52.84
9746;BME280;4912;50.836;12.958;2023-05-24T07:23:28;98239.50;;;13.71;53.03
9746;BME280;4912;50.836;12.958;2023-05-24T07:25:58;98239.84;;;13.49;51.27
9746;BME280;4912;50.836;12.958;2023-05-24T07:28:29;98242.81;;;13.45;50.26
9746;BME280;4912;50.836;12.958;2023-05-24T07:31:00;98242.63;;;13.34;50.99
9746;BME280;4912;50.836;12.958;2023-05-24T07:33:35;98247.09;;;13.08;51.28
9746;BME280;4912;50.836;12.958;2023-05-24T07:36:06;98256.44;;;13.20;51.44
9746;BME280;4912;50.836;12.958;2023-05-24T07:38:36;98253.81;;;13.25;52.32
9746;BME280;4912;50.836;12.958;2023-05-24T07:41:07;98253.91;;;13.07;52.65
9746;BME280;4912;50.836;12.958;2023-05-24T07:43:38;98256.09;;;13.03;52.82
9746;BME280;4912;50.836;12.958;2023-05-24T07:46:08;98262.00;;;13.20;53.15
9746;BME280;4912;50.836;12.958;2023-05-24T07:48:42;98259.41;;;13.40;53.30
9746;BME280;4912;50.836;12.958;2023-05-24T07:51:12;98255.16;;;13.30;53.59
9746;BME280;4912;50.836;12.958;2023-05-24T07:53:43;98263.88;;;13.37;52.40
9746;BME280;4912;50.836;12.958;2023-05-24T07:56:13;98259.53;;;13.22;51.48
9746;BME280;4912;50.836;12.958;2023-05-24T07:58:47;98260.59;;;13.00;51.97
9746;BME280;4912;50.836;12.958;2023-05-24T08:01:18;98259.44;;;13.16;52.09
9746;BME280;4912;50.836;12.958;2023-05-24T08:03:51;98267.50;;;13.29;52.08
9746;BME280;4912;50.836;12.958;2023-05-24T08:06:22;98264.03;;;13.19;51.47
9746;BME280;4912;50.836;12.958;2023-05-24T08:08:53;98273.63;;;13.09;51.65
9746;BME280;4912;50.836;12.958;2023-05-24T08:11:25;98264.72;;;13.05;51.98
9746;BME280;4912;50.836;12.958;2023-05-24T08:13:55;98264.16;;;13.01;52.84
9746;BME280;4912;50.836;12.958;2023-05-24T08:16:26;98262.25;;;13.07;53.15
9746;BME280;4912;50.836;12.958;2023-05-24T08:18:59;98264.72;;;13.05;53.16
9746;BME280;4912;50.836;12.958;2023-05-24T08:21:30;98269.19;;;13.02;52.91
9746;BME280;4912;50.836;12.958;2023-05-24T08:24:00;98262.53;;;13.09;52.97
9746;BME280;4912;50.836;12.958;2023-05-24T08:26:35;98266.25;;;13.06;52.36
9746;BME280;4912;50.836;12.958;2023-05-24T08:29:05;98272.88;;;13.08;51.55
9746;BME280;4912;50.836;12.958;2023-05-24T08:31:37;98272.66;;;13.21;52.51
9746;BME280;4912;50.836;12.958;2023-05-24T08:34:10;98267.16;;;13.36;51.17
9746;BME280;4912;50.836;12.958;2023-05-24T08:36:41;98267.88;;;13.60;50.97
9746;BME280;4912;50.836;12.958;2023-05-24T08:39:12;98269.44;;;13.76;49.95
9746;BME280;4912;50.836;12.958;2023-05-24T08:41:42;98262.91;;;14.08;48.79
9746;BME280;4912;50.836;12.958;2023-05-24T08:44:40;98268.56;;;14.28;48.42
9746;BME280;4912;50.836;12.958;2023-05-24T08:47:21;98273.75;;;14.35;48.49
9746;BME280;4912;50.836;12.958;2023-05-24T08:49:54;98277.28;;;14.36;49.21
9746;BME280;4912;50.836;12.958;2023-05-24T08:52:26;98276.91;;;14.28;48.85
9746;BME280;4912;50.836;12.958;2023-05-24T08:54:58;98276.63;;;14.26;49.13
9746;BME280;4912;50.836;12.958;2023-05-24T08:57:30;98276.53;;;14.50;49.57
9746;BME280;4912;50.836;12.958;2023-05-24T09:00:02;98277.69;;;15.13;46.82
9746;BME280;4912;50.836;12.958;2023-05-24T09:02:36;98273.75;;;15.46;46.34
9746;BME280;4912;50.836;12.958;2023-05-24T09:05:12;98276.50;;;16.12;45.07
9746;BME280;4912;50.836;12.958;2023-05-24T09:07:48;98276.16;;;16.30;43.56
9746;BME280;4912;50.836;12.958;2023-05-24T09:10:19;98285.69;;;16.18;44.69
9746;BME280;4912;50.836;12.958;2023-05-24T09:12:54;98282.75;;;16.02;45.82
9746;BME280;4912;50.836;12.958;2023-05-24T09:15:25;98288.56;;;15.52;45.14
9746;BME280;4912;50.836;12.958;2023-05-24T09:17:56;98285.84;;;15.37;45.52
9746;BME280;4912;50.836;12.958;2023-05-24T09:20:29;98283.94;;;15.29;45.20
9746;BME280;4912;50.836;12.958;2023-05-24T09:23:01;98287.16;;;15.42;45.31
9746;BME280;4912;50.836;12.958;2023-05-24T09:25:34;98287.44;;;15.24;44.15
9746;BME280;4912;50.836;12.958;2023-05-24T09:28:06;98282.91;;;15.46;45.94
9746;BME280;4912;50.836;12.958;2023-05-24T09:30:37;98291.13;;;16.02;47.01
9746;BME280;4912;50.836;12.958;2023-05-24T09:33:08;98282.75;;;15.76;44.09
9746;BME280;4912;50.836;12.958;2023-05-24T09:35:43;98291.59;;;15.74;44.71
9746;BME280;4912;50.836;12.958;2023-05-24T09:38:17;98291.91;;;15.56;44.97
9746;BME280;4912;50.836;12.958;2023-05-24T09:40:57;98290.28;;;15.49;45.90
9746;BME280;4912;50.836;12.958;2023-05-24T09:43:31;98290.66;;;15.37;45.50
9746;BME280;4912;50.836;12.958;2023-05-24T09:46:05;98283.53;;;15.36;44.96
9746;BME280;4912;50.836;12.958;2023-05-24T09:48:36;98298.19;;;15.31;44.80
9746;BME280;4912;50.836;12.958;2023-05-24T09:51:10;98293.81;;;15.50;45.86
9746;BME280;4912;50.836;12.958;2023-05-24T09:53:43;98293.72;;;15.85;42.99
9746;BME280;4912;50.836;12.958;2023-05-24T09:56:16;98293.78;;;15.90;41.95
9746;BME280;4912;50.836;12.958;2023-05-24T09:58:47;98294.44;;;15.80;42.77
9746;BME280;4912;50.836;12.958;2023-05-24T10:01:21;98297.19;;;16.57;40.62
9746;BME280;4912;50.836;12.958;2023-05-24T10:03:55;98293.72;;;16.68;41.81
9746;BME280;4912;50.836;12.958;2023-05-24T10:06:35;98282.91;;;16.81;41.99
9746;BME280;4912;50.836;12.958;2023-05-24T10:09:06;98293.47;;;16.66;41.42
9746;BME280;4912;50.836;12.958;2023-05-24T10:11:40;98298.97;;;16.55;40.70
9746;BME280;4912;50.836;12.958;2023-05-24T10:14:11;98288.53;;;16.87;40.53
9746;BME280;4912;50.836;12.958;2023-05-24T10:16:44;98299.44;;;16.85;40.78
9746;BME280;4912;50.836;12.958;2023-05-24T10:19:15;98299.88;;;16.72;40.72
9746;BME280;4912;50.836;12.958;2023-05-24T10:21:48;98299.41;;;17.92;38.62
9746;BME280;4912;50.836;12.958;2023-05-24T10:24:23;98300.25;;;17.44;38.67
9746;BME280;4912;50.836;12.958;2023-05-24T10:26:56;98298.78;;;17.54;39.73
9746;BME280;4912;50.836;12.958;2023-05-24T10:29:38;98293.75;;;17.70;38.78
9746;BME280;4912;50.836;12.958;2023-05-24T10:32:13;98303.22;;;17.78;40.44
9746;BME280;4912;50.836;12.958;2023-05-24T10:34:46;98304.75;;;17.79;38.18
9746;BME280;4912;50.836;12.958;2023-05-24T10:37:20;98310.63;;;17.33;39.71
9746;BME280;4912;50.836;12.958;2023-05-24T10:39:51;98304.19;;;17.69;39.27
9746;BME280;4912;50.836;12.958;2023-05-24T10:42:22;98290.75;;;19.18;36.66
9746;BME280;4912;50.836;12.958;2023-05-24T10:44:55;98288.84;;;20.41;34.94
9746;BME280;4912;50.836;12.958;2023-05-24T10:47:26;98282.59;;;20.84;33.47
9746;BME280;4912;50.836;12.958;2023-05-24T10:49:58;98283.25;;;20.36;34.60
9746;BME280;4912;50.836;12.958;2023-05-24T10:52:35;98280.66;;;20.02;34.99
9746;BME280;4912;50.836;12.958;2023-05-24T10:55:08;98290.31;;;20.13;34.77
9746;BME280;4912;50.836;12.958;2023-05-24T10:57:40;98287.84;;;20.93;33.26
9746;BME280;4912;50.836;12.958;2023-05-24T11:00:26;98287.78;;;22.22;32.28
9746;BME280;4912;50.836;12.958;2023-05-24T11:03:03;98289.09;;;22.53;30.88
9746;BME280;4912;50.836;12.958;2023-05-24T11:05:49;98277.94;;;23.19;29.21
9746;BME280;4912;50.836;12.958;2023-05-24T11:08:29;98273.91;;;22.88;29.58
9746;BME280;4912;50.836;12.958;2023-05-24T11:11:05;98279.13;;;21.83;32.10
9746;BME280;4912;50.836;12.958;2023-05-24T11:13:40;98271.97;;;22.19;32.86
9746;BME280;4912;50.836;12.958;2023-05-24T11:16:31;98282.84;;;22.28;33.95
9746;BME280;4912;50.836;12.958;2023-05-24T11:19:16;98283.69;;;21.48;32.03
9746;BME280;4912;50.836;12.958;2023-05-24T11:21:49;98295.22;;;20.72;32.72
9746;BME280;4912;50.836;12.958;2023-05-24T11:24:23;98288.47;;;20.15;33.11
9746;BME280;4912;50.836;12.958;2023-05-24T11:26:54;98281.69;;;19.99;33.75
9746;BME280;4912;50.836;12.958;2023-05-24T11:29:26;98277.72;;;19.84;34.95
9746;BME280;4912;50.836;12.958;2023-05-24T11:31:57;98284.09;;;19.84;35.25
9746;BME280;4912;50.836;12.958;2023-05-24T11:34:31;98282.06;;;19.79;36.60
9746;BME280;4912;50.836;12.958;2023-05-24T11:37:03;98287.88;;;19.92;37.63
9746;BME280;4912;50.836;12.958;2023-05-24T11:39:37;98282.75;;;22.34;36.30
9746;BME280;4912;50.836;12.958;2023-05-24T11:42:08;98277.50;;;23.67;33.79
9746;BME280;4912;50.836;12.958;2023-05-24T11:44:39;98282.41;;;24.97;30.11
9746;BME280;4912;50.836;12.958;2023-05-24T11:47:09;98284.81;;;25.86;28.17
9746;BME280;4912;50.836;12.958;2023-05-24T11:49:40;98271.03;;;27.09;28.48
9746;BME280;4912;50.836;12.958;2023-05-24T11:52:10;98273.63;;;26.31;26.45
9746;BME280;4912;50.836;12.958;2023-05-24T11:54:43;98286.03;;;25.05;27.23
9746;BME280;4912;50.836;12.958;2023-05-24T11:57:15;98282.94;;;23.99;28.93
9746;BME280;4912;50.836;12.958;2023-05-24T11:59:48;98276.88;;;25.48;26.65
9746;BME280;4912;50.836;12.958;2023-05-24T12:02:19;98276.84;;;26.43;24.87
9746;BME280;4912;50.836;12.958;2023-05-24T12:04:50;98274.81;;;26.89;24.76
9746;BME280;4912;50.836;12.958;2023-05-24T12:07:22;98280.38;;;25.34;25.99
9746;BME280;4912;50.836;12.958;2023-05-24T12:09:55;98285.97;;;24.15;26.63
9746;BME280;4912;50.836;12.958;2023-05-24T12:12:26;98288.25;;;23.43;28.14
9746;BME280;4912;50.836;12.958;2023-05-24T12:15:11;98286.38;;;22.93;28.98
9746;BME280;4912;50.836;12.958;2023-05-24T12:17:46;98287.81;;;22.99;28.79
9746;BME280;4912;50.836;12.958;2023-05-24T12:20:18;98280.47;;;24.71;27.90
9746;BME280;4912;50.836;12.958;2023-05-24T12:22:51;98285.69;;;23.92;28.40
9746;BME280;4912;50.836;12.958;2023-05-24T12:25:24;98283.16;;;23.28;30.03
9746;BME280;4912;50.836;12.958;2023-05-24T12:27:56;98278.38;;;22.01;29.81
9746;BME280;4912;50.836;12.958;2023-05-24T12:30:27;98287.28;;;21.24;31.63
9746;BME280;4912;50.836;12.958;2023-05-24T12:32:58;98287.34;;;20.95;32.30
9746;BME280;4912;50.836;12.958;2023-05-24T12:35:29;98280.00;;;22.60;30.15
9746;BME280;4912;50.836;12.958;2023-05-24T12:38:00;98286.06;;;21.82;29.78
9746;BME280;4912;50.836;12.958;2023-05-24T12:40:34;98279.13;;;20.72;31.26
9746;BME280;4912;50.836;12.958;2023-05-24T12:43:05;98265.25;;;22.22;29.28
9746;BME280;4912;50.836;12.958;2023-05-24T12:45:36;98263.88;;;24.13;27.98
9746;BME280;4912;50.836;12.958;2023-05-24T12:48:06;98269.84;;;24.85;28.29
9746;BME280;4912;50.836;12.958;2023-05-24T12:50:38;98262.00;;;23.95;29.89
9746;BME280;4912;50.836;12.958;2023-05-24T12:53:09;98268.94;;;23.07;32.28
9746;BME280;4912;50.836;12.958;2023-05-24T12:55:42;98265.38;;;22.30;33.07
9746;BME280;4912;50.836;12.958;2023-05-24T12:58:12;98278.69;;;21.79;34.58
9746;BME280;4912;50.836;12.958;2023-05-24T13:00:43;98277.84;;;21.65;35.28
9746;BME280;4912;50.836;12.958;2023-05-24T13:03:16;98282.03;;;21.77;35.33
9746;BME280;4912;50.836;12.958;2023-05-24T13:05:47;98271.56;;;22.28;33.97
9746;BME280;4912;50.836;12.958;2023-05-24T13:08:18;98277.41;;;23.47;33.65
9746;BME280;4912;50.836;12.958;2023-05-24T13:10:51;98268.28;;;24.35;32.38
9746;BME280;4912;50.836;12.958;2023-05-24T13:13:21;98270.94;;;25.03;28.68
9746;BME280;4912;50.836;12.958;2023-05-24T13:15:52;98269.59;;;25.60;26.76
9746;BME280;4912;50.836;12.958;2023-05-24T13:18:23;98274.84;;;26.00;25.22
9746;BME280;4912;50.836;12.958;2023-05-24T13:20:55;98273.38;;;26.14;23.76
9746;BME280;4912;50.836;12.958;2023-05-24T13:23:26;98267.97;;;26.54;25.88
9746;BME280;4912;50.836;12.958;2023-05-24T13:25:59;98269.94;;;25.21;26.63
9746;BME280;4912;50.836;12.958;2023-05-24T13:28:30;98262.22;;;24.18;28.78
9746;BME280;4912;50.836;12.958;2023-05-24T13:31:01;98261.94;;;23.74;31.13
9746;BME280;4912;50.836;12.958;2023-05-24T13:33:31;98259.47;;;22.92;31.53
9746;BME280;4912;50.836;12.958;2023-05-24T13:36:02;98263.34;;;22.30;31.70
9746;BME280;4912;50.836;12.958;2023-05-24T13:38:33;98257.47;;;21.96;32.54